createdAt,value
2019-02-22T00:04:39.192Z,8.70
2019-02-22T00:07:27.271Z,8.60
2019-02-22T00:10:15.106Z,8.60
2019-02-22T00:13:02.963Z,8.70
2019-02-22T00:15:50.806Z,8.60
2019-02-22T00:18:38.899Z,8.50
2019-02-22T00:21:26.740Z,8.50
2019-02-22T00:24:14.579Z,8.40
2019-02-22T00:27:02.419Z,8.40
2019-02-22T00:29:50.262Z,8.40
2019-02-22T00:32:38.111Z,8.40
2019-02-22T00:35:26.008Z,8.40
2019-02-22T00:38:14.131Z,8.50
2019-02-22T00:41:01.970Z,8.50
2019-02-22T00:43:50.038Z,8.60
2019-02-22T00:46:38.110Z,8.60
2019-02-22T00:49:26.415Z,8.70
2019-02-22T00:54:49.723Z,8.70
2019-02-22T01:00:20.416Z,8.80
2019-02-22T01:05:50.831Z,8.80
2019-02-22T01:14:05.400Z,8.90
2019-02-22T01:19:35.926Z,8.90
2019-02-22T01:50:24.398Z,9.10
2019-02-22T01:53:03.425Z,9.10
2019-02-22T01:55:51.275Z,9.00
2019-02-22T02:01:46.338Z,9.10
2019-02-22T02:04:34.675Z,9.10
2019-02-22T02:07:22.528Z,9.20
2019-02-22T02:13:17.367Z,9.30
2019-02-22T02:16:05.450Z,9.40
2019-02-22T02:18:53.286Z,9.40
2019-02-22T02:21:41.143Z,9.50
2019-02-22T02:24:29.215Z,9.50
2019-02-22T02:27:17.067Z,9.50
2019-02-22T02:30:05.196Z,9.50
2019-02-22T02:32:53.050Z,9.50
2019-02-22T02:35:40.905Z,9.50
2019-02-22T02:38:28.795Z,9.40
2019-02-22T02:41:16.687Z,9.40
2019-02-22T02:46:58.519Z,9.40
2019-02-22T02:49:46.668Z,9.40
2019-02-22T02:52:27.095Z,9.40
2019-02-22T02:55:07.716Z,9.40
2019-02-22T02:57:49.406Z,9.40
2019-02-22T03:00:17.989Z,9.40
2019-02-22T03:02:46.559Z,9.40
2019-02-22T03:05:15.673Z,9.40
2019-02-22T03:07:48.761Z,9.40
2019-02-22T03:10:17.642Z,9.40
2019-02-22T03:12:46.472Z,9.40
2019-02-22T03:15:16.731Z,9.40
2019-02-22T03:17:45.336Z,9.40
2019-02-22T03:20:13.898Z,9.40
2019-02-22T03:22:42.825Z,9.50
2019-02-22T03:25:11.384Z,9.50
2019-02-22T03:27:39.958Z,9.50
2019-02-22T03:30:08.576Z,9.50
2019-02-22T03:32:37.140Z,9.60
2019-02-22T03:35:05.831Z,9.60
2019-02-22T03:37:34.839Z,9.60
2019-02-22T03:40:03.418Z,9.60
2019-02-22T03:42:32.009Z,9.60
2019-02-22T03:45:00.568Z,9.50
2019-02-22T03:47:29.456Z,9.50
2019-02-22T03:49:58.048Z,9.60
2019-02-22T03:52:31.379Z,9.50
2019-02-22T03:55:00.024Z,9.50
2019-02-22T03:57:28.620Z,9.60
2019-02-22T03:59:57.529Z,9.50
2019-02-22T04:02:26.074Z,9.60
2019-02-22T04:04:54.995Z,9.50
2019-02-22T04:07:23.819Z,9.50
2019-02-22T04:09:52.471Z,9.50
2019-02-22T04:12:21.316Z,9.60
2019-02-22T04:14:49.928Z,9.50
2019-02-22T04:17:18.499Z,9.50
2019-02-22T04:19:47.092Z,9.50
2019-02-22T04:22:15.667Z,9.50
2019-02-22T04:24:44.587Z,9.50
2019-02-22T04:27:13.150Z,9.50
2019-02-22T04:29:41.728Z,9.50
2019-02-22T04:32:10.314Z,9.50
2019-02-22T04:34:39.207Z,9.50
2019-02-22T04:37:07.794Z,9.50
2019-02-22T04:39:36.368Z,9.50
2019-02-22T04:42:05.288Z,9.50
2019-02-22T04:44:33.813Z,9.50
2019-02-22T04:47:02.444Z,9.40
2019-02-22T04:49:31.009Z,9.40
2019-02-22T04:51:59.825Z,9.40
2019-02-22T04:54:28.656Z,9.40
2019-02-22T04:56:57.607Z,9.40
2019-02-22T04:59:26.133Z,9.40
2019-02-22T05:01:54.758Z,9.40
2019-02-22T05:04:23.354Z,9.40
2019-02-22T05:06:51.932Z,9.40
2019-02-22T05:09:20.570Z,9.40
2019-02-22T05:11:49.586Z,9.40
2019-02-22T05:14:18.175Z,9.40
2019-02-22T05:16:46.779Z,9.40
2019-02-22T05:19:15.346Z,9.40
2019-02-22T05:21:43.938Z,9.40
2019-02-22T05:24:12.515Z,9.50
2019-02-22T05:26:41.815Z,9.50
2019-02-22T05:29:10.738Z,9.50
2019-02-22T05:31:39.292Z,9.60
2019-02-22T05:34:08.215Z,9.60
2019-02-22T05:36:37.046Z,9.60
2019-02-22T05:39:18.039Z,9.60
2019-02-22T05:41:36.705Z,9.70
2019-02-22T05:44:05.351Z,9.70
2019-02-22T05:46:33.972Z,9.70
2019-02-22T05:49:02.560Z,9.70
2019-02-22T05:51:31.774Z,9.70
2019-02-22T05:54:00.667Z,9.70
2019-02-22T05:56:29.610Z,9.70
2019-02-22T05:58:58.237Z,9.70
2019-02-22T06:01:26.811Z,9.80
2019-02-22T06:03:55.719Z,9.80
2019-02-22T06:06:24.292Z,9.80
2019-02-22T06:08:52.871Z,9.80
2019-02-22T06:11:21.459Z,9.80
2019-02-22T06:13:50.367Z,9.90
2019-02-22T06:16:18.919Z,9.80
2019-02-22T06:18:48.107Z,9.90
2019-02-22T06:21:16.712Z,9.90
2019-02-22T06:23:45.927Z,9.90
2019-02-22T06:26:14.487Z,9.90
2019-02-22T06:28:43.076Z,9.90
2019-02-22T06:31:11.991Z,9.90
2019-02-22T06:33:40.856Z,10.00
2019-02-22T06:36:09.440Z,10.00
2019-02-22T06:38:38.867Z,10.00
2019-02-22T06:41:07.443Z,10.00
2019-02-22T06:43:36.014Z,10.00
2019-02-22T06:46:04.619Z,10.00
2019-02-22T06:48:33.525Z,10.00
2019-02-22T06:51:02.355Z,10.00
2019-02-22T06:53:30.970Z,10.00
2019-02-22T06:55:59.559Z,10.00
2019-02-22T06:58:28.148Z,10.10
2019-02-22T07:00:56.693Z,10.10
2019-02-22T07:03:25.609Z,10.10
2019-02-22T07:05:54.241Z,10.10
2019-02-22T07:08:22.881Z,10.10
2019-02-22T07:10:59.919Z,10.10
2019-02-22T07:13:28.631Z,10.10
2019-02-22T07:15:57.235Z,10.20
2019-02-22T07:18:26.145Z,10.20
2019-02-22T07:20:55.517Z,10.20
2019-02-22T07:23:24.120Z,10.20
2019-02-22T07:25:53.014Z,10.20
2019-02-22T07:28:22.117Z,10.30
2019-02-22T07:30:50.691Z,10.40
2019-02-22T07:33:19.272Z,10.40
2019-02-22T07:35:48.175Z,10.40
2019-02-22T07:38:17.068Z,10.40
2019-02-22T07:40:45.957Z,10.50
2019-02-22T07:43:14.729Z,10.50
2019-02-22T07:45:43.643Z,10.50
2019-02-22T07:48:12.207Z,10.60
2019-02-22T07:50:40.784Z,10.60
2019-02-22T07:53:09.655Z,10.60
2019-02-22T07:55:38.587Z,10.60
2019-02-22T07:58:08.707Z,10.70
2019-02-22T08:00:37.494Z,10.70
2019-02-22T08:03:06.695Z,10.70
2019-02-22T08:05:35.793Z,10.70
2019-02-22T08:08:04.361Z,10.70
2019-02-22T08:10:32.940Z,10.70
2019-02-22T08:13:01.514Z,10.70
2019-02-22T08:15:30.143Z,10.80
2019-02-22T08:17:59.095Z,10.80
2019-02-22T08:20:27.687Z,10.80
2019-02-22T08:22:56.260Z,10.90
2019-02-22T08:25:25.520Z,11.00
2019-02-22T08:27:54.577Z,11.10
2019-02-22T08:30:23.574Z,11.20
2019-02-22T08:32:52.176Z,11.30
2019-02-22T08:35:20.723Z,11.40
2019-02-22T08:37:50.586Z,11.40
2019-02-22T08:40:19.622Z,11.50
2019-02-22T08:42:48.202Z,11.60
2019-02-22T08:45:16.820Z,11.70
2019-02-22T08:47:45.382Z,11.70
2019-02-22T08:50:14.599Z,11.80
2019-02-22T08:52:43.371Z,11.90
2019-02-22T08:55:12.263Z,11.90
2019-02-22T08:57:40.838Z,11.90
2019-02-22T09:00:28.696Z,11.90
2019-02-22T09:03:16.868Z,12.00
2019-02-22T09:06:04.735Z,12.00
2019-02-22T09:08:52.574Z,12.10
2019-02-22T09:11:40.436Z,12.10
2019-02-22T09:14:28.520Z,12.10
2019-02-22T09:17:16.375Z,12.10
2019-02-22T09:20:04.674Z,12.10
2019-02-22T09:22:52.523Z,12.20
2019-02-22T09:25:40.376Z,12.30
2019-02-22T09:28:28.228Z,12.40
2019-02-22T09:31:16.350Z,12.40
2019-02-22T09:34:04.895Z,12.40
2019-02-22T09:36:53.035Z,12.40
2019-02-22T09:39:41.158Z,12.50
2019-02-22T09:42:29.255Z,12.60
2019-02-22T09:45:17.336Z,12.80
2019-02-22T09:48:05.414Z,12.90
2019-02-22T09:50:53.258Z,13.00
2019-02-22T09:53:35.577Z,13.10
2019-02-22T09:56:17.659Z,13.10
2019-02-22T10:07:16.524Z,13.00
2019-02-22T10:12:47.062Z,12.90
2019-02-22T10:43:37.502Z,14.70
2019-02-22T10:46:18.867Z,14.20
2019-02-22T10:49:00.027Z,14.10
2019-02-22T10:51:40.791Z,13.90
2019-02-22T10:54:21.148Z,13.90
2019-02-22T10:57:01.997Z,14.00
2019-02-22T10:59:42.907Z,13.90
2019-02-22T11:02:23.401Z,13.80
2019-02-22T11:05:04.359Z,13.80
2019-02-22T11:07:44.858Z,13.70
2019-02-22T11:10:25.633Z,13.60
2019-02-22T11:13:07.915Z,13.50
2019-02-22T11:15:49.063Z,13.40
2019-02-22T11:18:30.234Z,13.30
2019-02-22T11:21:11.011Z,13.30
2019-02-22T11:23:51.448Z,13.30
2019-02-22T11:26:31.955Z,13.40
2019-02-22T11:29:12.679Z,13.40
2019-02-22T11:31:53.151Z,13.40
2019-02-22T11:34:33.668Z,13.30
2019-02-22T11:37:14.412Z,13.30
2019-02-22T11:39:55.224Z,13.30
2019-02-22T11:42:35.503Z,13.30
2019-02-22T11:45:16.264Z,13.30
2019-02-22T11:48:08.402Z,13.20
2019-02-22T11:50:39.831Z,13.30
2019-02-22T11:53:21.082Z,13.30
2019-02-22T11:56:01.757Z,13.30
2019-02-22T11:58:42.335Z,13.30
2019-02-22T12:01:22.623Z,13.40
2019-02-22T12:04:03.401Z,13.40
2019-02-22T12:06:44.207Z,13.40
2019-02-22T12:09:24.558Z,13.40
2019-02-22T12:12:05.254Z,13.30
2019-02-22T12:14:51.515Z,13.30
2019-02-22T12:17:28.557Z,13.30
2019-02-22T12:20:09.191Z,13.20
2019-02-22T12:22:49.865Z,13.10
2019-02-22T12:25:30.715Z,13.10
2019-02-22T12:28:11.422Z,13.00
2019-02-22T12:30:52.488Z,13.00
2019-02-22T12:33:33.170Z,13.00
2019-02-22T12:36:13.727Z,12.90
2019-02-22T12:38:54.087Z,12.90
2019-02-22T12:41:34.690Z,12.80
2019-02-22T12:44:15.350Z,12.80
2019-02-22T12:46:56.236Z,12.80
2019-02-22T12:49:36.877Z,12.80
2019-02-22T12:52:17.411Z,12.80
2019-02-22T12:54:58.430Z,12.80
2019-02-22T12:57:39.206Z,12.80
2019-02-22T13:00:20.366Z,12.80
2019-02-22T13:03:02.365Z,12.90
2019-02-22T13:05:43.726Z,12.90
2019-02-22T13:08:24.947Z,12.90
2019-02-22T13:11:05.351Z,12.80
2019-02-22T13:13:46.415Z,12.80
2019-02-22T13:16:27.423Z,12.90
2019-02-22T13:19:07.740Z,12.80
2019-02-22T13:21:49.164Z,12.90
2019-02-22T13:24:29.611Z,12.80
2019-02-22T13:27:10.631Z,12.90
2019-02-22T13:29:51.179Z,12.90
2019-02-22T13:32:31.729Z,12.90
2019-02-22T13:35:12.684Z,12.90
2019-02-22T13:37:53.148Z,12.90
2019-02-22T13:43:15.404Z,12.90
2019-02-22T13:45:56.193Z,12.90
2019-02-22T13:48:38.332Z,12.90
2019-02-22T13:54:10.991Z,12.90
2019-02-22T14:05:15.834Z,13.00
2019-02-22T14:08:00.066Z,12.90
2019-02-22T14:13:26.851Z,12.90
2019-02-22T14:16:07.763Z,12.90
2019-02-22T14:18:48.155Z,12.90
2019-02-22T14:21:28.930Z,12.90
2019-02-22T14:24:09.983Z,12.90
2019-02-22T14:26:50.625Z,12.80
2019-02-22T14:29:31.458Z,12.80
2019-02-22T14:32:12.256Z,12.80
2019-02-22T14:34:53.045Z,12.80
2019-02-22T14:37:33.330Z,12.70
2019-02-22T14:40:14.580Z,12.70
2019-02-22T14:42:55.951Z,12.70
2019-02-22T14:45:36.526Z,12.80
2019-02-22T14:48:17.661Z,12.70
2019-02-22T14:50:58.306Z,12.70
2019-02-22T14:53:38.915Z,12.70
2019-02-22T14:56:20.327Z,12.70
2019-02-22T15:01:31.203Z,12.80
2019-02-22T15:04:00.617Z,12.80
2019-02-22T15:06:29.704Z,12.80
2019-02-22T15:08:58.306Z,12.80
2019-02-22T15:11:26.955Z,12.80
2019-02-22T15:13:55.872Z,12.80
2019-02-22T15:16:47.492Z,12.80
2019-02-22T15:19:23.614Z,12.90
2019-02-22T15:21:52.226Z,12.90
2019-02-22T15:24:20.782Z,12.90
2019-02-22T15:26:49.711Z,12.90
2019-02-22T15:29:37.564Z,12.80
2019-02-22T15:32:06.721Z,12.80
2019-02-22T15:34:35.732Z,12.80
2019-02-22T15:37:04.302Z,12.90
2019-02-22T15:39:33.575Z,12.90
2019-02-22T15:42:03.017Z,13.10
2019-02-22T15:44:32.038Z,13.50
2019-02-22T15:47:11.391Z,13.50
2019-02-22T15:49:31.767Z,13.50
2019-02-22T15:52:00.411Z,13.30
2019-02-22T15:54:29.275Z,13.20
2019-02-22T15:56:58.519Z,13.00
2019-02-22T15:59:27.511Z,13.20
2019-02-22T16:01:56.405Z,13.20
2019-02-22T16:04:31.050Z,13.10
2019-02-22T16:06:59.707Z,12.90
2019-02-22T16:09:28.608Z,12.70
2019-02-22T16:11:57.162Z,12.60
2019-02-22T16:14:25.759Z,12.50
2019-02-22T16:16:54.630Z,12.40
2019-02-22T16:19:23.575Z,12.30
2019-02-22T16:21:52.755Z,12.20
2019-02-22T16:24:21.751Z,12.20
2019-02-22T16:27:02.013Z,12.10
2019-02-22T16:29:34.568Z,12.00
2019-02-22T16:32:04.602Z,12.00
2019-02-22T16:34:43.178Z,11.90
2019-02-22T16:37:03.819Z,11.90
2019-02-22T16:39:32.386Z,11.80
2019-02-22T16:42:01.235Z,11.80
2019-02-22T16:44:30.188Z,11.80
2019-02-22T16:46:59.383Z,11.70
2019-02-22T16:49:27.951Z,11.70
2019-02-22T16:51:56.539Z,11.60
2019-02-22T16:54:25.453Z,11.60
2019-02-22T16:56:55.331Z,11.50
2019-02-22T16:59:24.319Z,11.40
2019-02-22T17:01:52.907Z,11.40
2019-02-22T17:04:21.823Z,11.40
2019-02-22T17:06:50.715Z,11.30
2019-02-22T17:09:19.275Z,11.30
2019-02-22T17:11:47.852Z,11.20
2019-02-22T17:14:16.780Z,11.20
2019-02-22T17:16:46.239Z,11.10
2019-02-22T17:19:14.954Z,11.10
2019-02-22T17:21:43.521Z,11.00
2019-02-22T17:24:12.442Z,11.00
2019-02-22T17:26:41.308Z,10.90
2019-02-22T17:29:09.907Z,10.90
2019-02-22T17:31:38.805Z,10.80
2019-02-22T17:34:07.418Z,10.80
2019-02-22T17:36:36.042Z,10.70
2019-02-22T17:39:05.634Z,10.70
2019-02-22T17:41:34.475Z,10.70
2019-02-22T17:44:03.042Z,10.60
2019-02-22T17:46:31.953Z,10.60
2019-02-22T17:49:00.843Z,10.50
2019-02-22T17:51:29.399Z,10.50
2019-02-22T17:53:57.999Z,10.50
2019-02-22T17:56:26.574Z,10.40
2019-02-22T17:58:55.791Z,10.40
2019-02-22T18:01:24.991Z,10.30
2019-02-22T18:03:53.862Z,10.30
2019-02-22T18:06:23.079Z,10.30
2019-02-22T18:08:51.950Z,10.20
2019-02-22T18:11:20.859Z,10.20
2019-02-22T18:13:49.416Z,10.20
2019-02-22T18:16:18.019Z,10.10
2019-02-22T18:18:46.924Z,10.10
2019-02-22T18:21:15.483Z,10.10
2019-02-22T18:23:44.098Z,10.10
2019-02-22T18:26:12.978Z,10.00
2019-02-22T18:28:41.570Z,10.00
2019-02-22T18:31:10.434Z,9.90
2019-02-22T18:33:38.999Z,9.90
2019-02-22T18:36:07.910Z,9.90
2019-02-22T18:38:36.818Z,9.80
2019-02-22T18:41:05.393Z,9.70
2019-02-22T18:43:33.950Z,9.60
2019-02-22T18:46:02.552Z,9.50
2019-02-22T18:48:31.313Z,9.50
2019-02-22T18:50:59.956Z,9.40
2019-02-22T18:53:28.730Z,9.30
2019-02-22T18:55:57.351Z,9.30
2019-02-22T18:58:26.106Z,9.30
2019-02-22T19:00:54.899Z,9.30
2019-02-22T19:03:23.475Z,9.30
2019-02-22T19:05:52.282Z,9.20
2019-02-22T19:08:31.821Z,9.20
2019-02-22T19:10:51.186Z,9.10
2019-02-22T19:13:23.862Z,9.10
2019-02-22T19:15:52.454Z,9.10
2019-02-22T19:18:21.004Z,9.10
2019-02-22T19:20:49.571Z,9.00
2019-02-22T19:23:18.176Z,9.00
2019-02-22T19:25:46.748Z,9.00
2019-02-22T19:28:15.338Z,8.90
2019-02-22T19:30:43.926Z,8.90
2019-02-22T19:33:12.462Z,8.90
2019-02-22T19:35:41.131Z,8.90
2019-02-22T19:38:09.776Z,8.90
2019-02-22T19:40:38.351Z,8.80
2019-02-22T19:43:06.944Z,8.80
2019-02-22T19:45:35.532Z,8.80
2019-02-22T19:48:04.387Z,8.80
2019-02-22T19:50:41.084Z,8.80
2019-02-22T19:53:03.654Z,8.80
2019-02-22T19:55:32.547Z,8.80
2019-02-22T19:58:01.642Z,8.80
2019-02-22T20:00:30.431Z,8.70
2019-02-22T20:02:58.986Z,8.70
2019-02-22T20:05:28.631Z,8.70
2019-02-22T20:07:57.175Z,8.70
2019-02-22T20:10:26.002Z,8.70
2019-02-22T20:12:54.888Z,8.70
2019-02-22T20:15:23.769Z,8.70
2019-02-22T20:17:54.979Z,8.70
2019-02-22T20:20:23.492Z,8.70
2019-02-22T20:22:52.058Z,8.60
2019-02-22T20:25:20.723Z,8.60
2019-02-22T20:27:49.631Z,8.60
2019-02-22T20:30:18.228Z,8.60
2019-02-22T20:32:47.138Z,8.60
2019-02-22T20:35:17.520Z,8.50
2019-02-22T20:37:52.825Z,8.50
2019-02-22T20:40:16.458Z,8.50
2019-02-22T20:42:45.650Z,8.50
2019-02-22T20:45:14.481Z,8.40
2019-02-22T20:47:43.014Z,8.40
2019-02-22T20:50:11.621Z,8.40
2019-02-22T20:52:40.573Z,8.40
2019-02-22T20:55:09.510Z,8.40
2019-02-22T20:57:38.071Z,8.30
2019-02-22T21:00:25.923Z,8.30
2019-02-22T21:03:16.117Z,8.30
2019-02-22T21:06:03.595Z,8.30
2019-02-22T21:08:51.434Z,8.30
2019-02-22T21:11:39.530Z,8.20
2019-02-22T21:14:27.615Z,8.20
2019-02-22T21:17:15.480Z,8.20
2019-02-22T21:20:03.331Z,8.20
2019-02-22T21:22:51.435Z,8.10
2019-02-22T21:25:39.274Z,8.10
2019-02-22T21:28:27.122Z,8.10
2019-02-22T21:31:14.976Z,8.10
2019-02-22T21:34:02.830Z,8.10
2019-02-22T21:36:50.706Z,8.00
2019-02-22T21:39:39.058Z,7.90
2019-02-22T21:42:27.507Z,7.90
2019-02-22T21:45:15.375Z,7.90
2019-02-22T21:48:03.483Z,7.90
2019-02-22T21:50:51.336Z,7.90
2019-02-22T21:53:39.215Z,7.90
2019-02-22T22:30:01.623Z,7.60
2019-02-22T22:32:42.858Z,7.60
2019-02-22T22:35:23.472Z,7.60
2019-02-22T22:38:04.167Z,7.50
2019-02-22T22:40:44.899Z,7.50
2019-02-22T22:43:25.619Z,7.50
2019-02-22T22:46:06.003Z,7.50
2019-02-22T22:48:50.396Z,7.50
2019-02-22T22:51:29.226Z,7.40
2019-02-22T22:54:09.997Z,7.40
2019-02-22T22:56:50.391Z,7.40
2019-02-22T22:59:31.211Z,7.30
2019-02-22T23:02:12.039Z,7.30
2019-02-22T23:04:52.775Z,7.30
2019-02-22T23:07:33.286Z,7.20
2019-02-22T23:10:13.854Z,7.20
2019-02-22T23:12:54.244Z,7.20
2019-02-22T23:15:35.055Z,7.20
2019-02-22T23:18:16.186Z,7.20
2019-02-22T23:20:56.922Z,7.20
2019-02-22T23:23:37.367Z,7.10
2019-02-22T23:26:16.535Z,7.10
2019-02-22T23:29:04.463Z,7.10
2019-02-22T23:31:54.280Z,7.00
2019-02-22T23:34:42.160Z,7.00
2019-02-22T23:37:30.255Z,7.00
2019-02-22T23:40:18.339Z,7.00
2019-02-22T23:43:06.183Z,7.00
2019-02-22T23:45:54.034Z,6.90
2019-02-22T23:48:42.210Z,6.90
2019-02-22T23:51:30.064Z,6.90
